Wetterdaten: Woche 12.11.18 - 18.11.18 (KW46)
Datum Zeit Temp. Auen Feucht Auen Luftdruck Regen Richtung Windben
12.11.2018 00:00 3,4 C 94 % 1020,0 hPa 0,0 mm W 0,7 km/h (0 Bft)
12.11.2018 01:00 4,1 C 94 % 1019,9 hPa 0,0 mm W 1,1 km/h (0 Bft)
12.11.2018 02:00 3,5 C 94 % 1020,1 hPa 0,0 mm W 0,8 km/h (0 Bft)
12.11.2018 03:00 3,3 C 94 % 1020,3 hPa 0,2 mm W 0,7 km/h (0 Bft)
12.11.2018 04:00 4,5 C 94 % 1020,3 hPa 0,0 mm W 1,3 km/h (1 Bft)
12.11.2018 05:00 5,1 C 94 % 1020,3 hPa 0,0 mm W 2,4 km/h (1 Bft)
12.11.2018 06:00 5,2 C 94 % 1020,9 hPa 0,0 mm W 1,2 km/h (1 Bft)
12.11.2018 07:00 5,1 C 94 % 1021,5 hPa 0,0 mm O 6,7 km/h (2 Bft)
12.11.2018 08:00 5,2 C 94 % 1021,6 hPa 0,0 mm O-SO 7,8 km/h (2 Bft)
12.11.2018 09:00 5,7 C 94 % 1021,7 hPa 0,0 mm O-SO 6,0 km/h (2 Bft)
12.11.2018 10:00 6,3 C 94 % 1021,5 hPa 0,0 mm O-SO 9,4 km/h (2 Bft)
12.11.2018 11:00 7,5 C 94 % 1020,7 hPa 0,0 mm SO 8,6 km/h (2 Bft)
12.11.2018 12:00 10,0 C 92 % 1020,4 hPa 0,0 mm SO 11,2 km/h (2 Bft)
12.11.2018 13:00 10,3 C 89 % 1020,5 hPa 0,0 mm O 12,9 km/h (3 Bft)
12.11.2018 14:00 9,1 C 90 % 1020,7 hPa 0,0 mm O-SO 14,2 km/h (3 Bft)
12.11.2018 15:00 7,5 C 92 % 1021,2 hPa 0,0 mm SO 10,7 km/h (2 Bft)
12.11.2018 16:00 6,2 C 93 % 1021,5 hPa 0,0 mm SO 6,0 km/h (2 Bft)
12.11.2018 17:00 6,1 C 93 % 1021,9 hPa 0,0 mm SO 4,9 km/h (1 Bft)
12.11.2018 18:00 6,1 C 94 % 1022,6 hPa 0,0 mm SO 1,9 km/h (1 Bft)
12.11.2018 19:00 6,0 C 94 % 1023,5 hPa 0,0 mm SO 1,2 km/h (1 Bft)
12.11.2018 20:00 5,9 C 94 % 1024,2 hPa 0,0 mm SO 0,8 km/h (0 Bft)
12.11.2018 21:00 5,6 C 94 % 1024,4 hPa 0,0 mm SO 2,0 km/h (1 Bft)
12.11.2018 22:00 5,2 C 94 % 1024,5 hPa 0,2 mm SO 1,2 km/h (1 Bft)
12.11.2018 23:00 4,8 C 94 % 1024,6 hPa 0,0 mm SO 0,3 km/h (0 Bft)
13.11.2018 00:00 4,2 C 94 % 1024,2 hPa 0,0 mm SO 0,3 km/h (0 Bft)
13.11.2018 01:00 3,2 C 94 % 1024,3 hPa 0,0 mm S-SO 1,2 km/h (1 Bft)
13.11.2018 02:00 2,1 C 94 % 1024,5 hPa 0,0 mm S-SO 0,0 km/h (0 Bft)
13.11.2018 03:00 1,9 C 95 % 1024,2 hPa 0,0 mm S-SO 0,0 km/h (0 Bft)
13.11.2018 04:00 1,6 C 94 % 1024,0 hPa 0,2 mm S-SO 0,4 km/h (0 Bft)
13.11.2018 05:00 1,4 C 94 % 1023,7 hPa 0,0 mm S 0,0 km/h (0 Bft)
13.11.2018 06:00 1,2 C 94 % 1024,0 hPa 0,0 mm S 0,0 km/h (0 Bft)
13.11.2018 07:00 1,3 C 95 % 1024,8 hPa 0,0 mm S 0,0 km/h (0 Bft)
13.11.2018 08:00 3,3 C 95 % 1025,8 hPa 0,0 mm W-SW 4,7 km/h (1 Bft)
13.11.2018 09:00 6,5 C 95 % 1027,2 hPa 0,0 mm W 13,8 km/h (3 Bft)
13.11.2018 10:00 10,0 C 89 % 1028,0 hPa 0,0 mm S-SW 5,1 km/h (1 Bft)
13.11.2018 11:00 11,8 C 84 % 1028,3 hPa 0,0 mm S-SW 2,0 km/h (1 Bft)
13.11.2018 12:00 13,0 C 84 % 1028,0 hPa 0,0 mm O-SO 3,5 km/h (1 Bft)
13.11.2018 13:00 13,4 C 82 % 1028,4 hPa 0,0 mm W-SW 9,1 km/h (2 Bft)
13.11.2018 14:00 11,9 C 86 % 1029,3 hPa 0,0 mm W 13,0 km/h (3 Bft)
13.11.2018 15:00 11,1 C 88 % 1030,3 hPa 0,0 mm W 11,3 km/h (2 Bft)
13.11.2018 16:00 10,7 C 88 % 1031,1 hPa 0,0 mm W-SW 8,3 km/h (2 Bft)
13.11.2018 17:00 10,8 C 84 % 1031,8 hPa 0,0 mm W 8,9 km/h (2 Bft)
13.11.2018 18:00 10,6 C 83 % 1032,3 hPa 0,0 mm W 7,6 km/h (2 Bft)
13.11.2018 19:00 10,1 C 85 % 1032,6 hPa 0,0 mm W 3,3 km/h (1 Bft)
13.11.2018 20:00 9,3 C 90 % 1032,5 hPa 0,2 mm W 2,1 km/h (1 Bft)
13.11.2018 21:00 8,0 C 91 % 1033,0 hPa 0,0 mm W 0,1 km/h (0 Bft)
13.11.2018 22:00 7,4 C 92 % 1033,0 hPa 0,0 mm W 0,0 km/h (0 Bft)
13.11.2018 23:00 7,5 C 93 % 1033,1 hPa 0,0 mm W 0,5 km/h (0 Bft)
14.11.2018 00:00 7,4 C 93 % 1033,0 hPa 0,0 mm W 1,1 km/h (0 Bft)
14.11.2018 01:00 7,4 C 93 % 1032,9 hPa 0,0 mm W 0,3 km/h (0 Bft)
14.11.2018 02:00 7,2 C 93 % 1032,6 hPa 0,0 mm W 0,7 km/h (0 Bft)
14.11.2018 03:00 6,6 C 93 % 1032,3 hPa 0,0 mm W 1,1 km/h (0 Bft)
14.11.2018 04:00 6,6 C 93 % 1032,0 hPa 0,0 mm W 0,9 km/h (0 Bft)
14.11.2018 05:00 6,7 C 93 % 1031,8 hPa 0,0 mm W 0,3 km/h (0 Bft)
14.11.2018 06:00 6,5 C 93 % 1031,8 hPa 0,0 mm W 0,3 km/h (0 Bft)
14.11.2018 07:00 5,5 C 93 % 1031,9 hPa 0,0 mm W 0,1 km/h (0 Bft)
14.11.2018 08:00 5,0 C 94 % 1031,8 hPa 0,0 mm W 0,1 km/h (0 Bft)
14.11.2018 09:00 6,7 C 94 % 1031,6 hPa 0,0 mm W 4,0 km/h (1 Bft)
14.11.2018 10:00 8,3 C 93 % 1031,3 hPa 0,0 mm O 10,2 km/h (2 Bft)
14.11.2018 11:00 9,2 C 91 % 1030,3 hPa 0,0 mm O-SO 14,0 km/h (3 Bft)
14.11.2018 12:00 9,6 C 90 % 1029,9 hPa 0,0 mm O 15,6 km/h (3 Bft)
14.11.2018 13:00 9,5 C 89 % 1029,6 hPa 0,0 mm O 16,5 km/h (3 Bft)
14.11.2018 14:00 8,9 C 90 % 1029,3 hPa 0,0 mm O 15,2 km/h (3 Bft)
14.11.2018 15:00 7,6 C 92 % 1029,4 hPa 0,0 mm O 13,8 km/h (3 Bft)
14.11.2018 16:00 6,1 C 93 % 1029,4 hPa 0,0 mm O-SO 4,0 km/h (1 Bft)
14.11.2018 17:00 5,6 C 94 % 1029,6 hPa 0,0 mm O-SO 0,0 km/h (0 Bft)
14.11.2018 18:00 6,0 C 94 % 1029,5 hPa 0,0 mm O-SO 3,7 km/h (1 Bft)
14.11.2018 19:00 5,8 C 94 % 1029,7 hPa 0,0 mm O-SO 7,5 km/h (2 Bft)
14.11.2018 20:00 5,6 C 94 % 1029,5 hPa 0,0 mm O-SO 4,7 km/h (1 Bft)
14.11.2018 21:00 5,4 C 94 % 1029,5 hPa 0,0 mm S-SO 4,9 km/h (1 Bft)
14.11.2018 22:00 5,5 C 94 % 1029,5 hPa 0,0 mm O-NO 6,3 km/h (2 Bft)
14.11.2018 23:00 5,3 C 94 % 1029,4 hPa 0,0 mm O 8,7 km/h (2 Bft)
15.11.2018 00:00 5,1 C 94 % 1029,0 hPa 0,0 mm O-NO 7,1 km/h (2 Bft)
15.11.2018 01:00 5,1 C 94 % 1028,6 hPa 0,0 mm SO 6,5 km/h (2 Bft)
15.11.2018 02:00 4,8 C 94 % 1028,6 hPa 0,0 mm SO 8,1 km/h (2 Bft)
15.11.2018 03:00 4,7 C 94 % 1028,3 hPa 0,0 mm O 8,2 km/h (2 Bft)
15.11.2018 04:00 4,7 C 94 % 1027,9 hPa 0,0 mm O-NO 5,9 km/h (2 Bft)
15.11.2018 05:00 4,6 C 94 % 1028,0 hPa 0,0 mm O-NO 7,9 km/h (2 Bft)
15.11.2018 06:00 4,4 C 94 % 1028,1 hPa 0,0 mm O-NO 9,5 km/h (2 Bft)
15.11.2018 07:00 4,3 C 94 % 1028,4 hPa 0,0 mm O 9,1 km/h (2 Bft)
15.11.2018 08:00 4,1 C 94 % 1028,5 hPa 0,0 mm O 8,4 km/h (2 Bft)
15.11.2018 09:00 4,2 C 94 % 1028,6 hPa 0,0 mm O-SO 8,4 km/h (2 Bft)
15.11.2018 10:00 4,6 C 94 % 1028,5 hPa 0,0 mm O-NO 12,5 km/h (3 Bft)
15.11.2018 11:00 4,9 C 94 % 1028,3 hPa 0,0 mm O-NO 12,9 km/h (3 Bft)
15.11.2018 12:00 5,3 C 93 % 1027,8 hPa 0,0 mm O 12,8 km/h (3 Bft)
15.11.2018 13:00 5,4 C 93 % 1027,4 hPa 0,0 mm O 13,0 km/h (3 Bft)
15.11.2018 14:00 5,1 C 93 % 1027,3 hPa 0,0 mm O-SO 13,4 km/h (3 Bft)
15.11.2018 15:00 4,8 C 92 % 1027,4 hPa 0,0 mm O-NO 9,9 km/h (2 Bft)
15.11.2018 16:00 3,8 C 92 % 1027,5 hPa 0,0 mm O-NO 4,0 km/h (1 Bft)
15.11.2018 17:00 2,9 C 92 % 1027,6 hPa 0,0 mm O 1,2 km/h (1 Bft)
15.11.2018 18:00 1,8 C 92 % 1028,1 hPa 0,0 mm O 0,3 km/h (0 Bft)
15.11.2018 19:00 1,1 C 93 % 1028,2 hPa 0,0 mm O 0,8 km/h (0 Bft)
15.11.2018 20:00 0,8 C 93 % 1028,2 hPa 0,0 mm O 0,0 km/h (0 Bft)
15.11.2018 21:00 1,2 C 93 % 1028,3 hPa 0,0 mm O 1,2 km/h (1 Bft)
15.11.2018 22:00 2,9 C 94 % 1028,3 hPa 0,0 mm O-SO 4,4 km/h (1 Bft)
15.11.2018 23:00 3,7 C 94 % 1028,8 hPa 0,0 mm O-SO 9,0 km/h (2 Bft)
16.11.2018 00:00 3,9 C 94 % 1029,0 hPa 0,0 mm O 7,2 km/h (2 Bft)
16.11.2018 01:00 4,0 C 93 % 1028,9 hPa 0,0 mm O-SO 7,9 km/h (2 Bft)
16.11.2018 02:00 4,0 C 93 % 1029,0 hPa 0,0 mm O-SO 8,8 km/h (2 Bft)
16.11.2018 03:00 3,8 C 93 % 1028,8 hPa 0,0 mm O 6,8 km/h (2 Bft)
16.11.2018 04:00 3,7 C 93 % 1029,0 hPa 0,0 mm O 9,8 km/h (2 Bft)
16.11.2018 05:00 3,4 C 92 % 1029,0 hPa 0,0 mm O-SO 10,6 km/h (2 Bft)
16.11.2018 06:00 3,3 C 92 % 1029,1 hPa 0,0 mm O-NO 11,4 km/h (2 Bft)
16.11.2018 07:00 3,2 C 92 % 1029,5 hPa 0,0 mm O-NO 13,7 km/h (3 Bft)
16.11.2018 08:00 3,1 C 92 % 1030,1 hPa 0,0 mm O 14,8 km/h (3 Bft)
16.11.2018 09:00 3,2 C 91 % 1030,3 hPa 0,0 mm O-NO 16,2 km/h (3 Bft)
16.11.2018 10:00 3,5 C 90 % 1030,2 hPa 0,0 mm O 13,6 km/h (3 Bft)
16.11.2018 11:00 3,7 C 90 % 1030,1 hPa 0,0 mm O-NO 12,9 km/h (3 Bft)
16.11.2018 12:00 4,2 C 89 % 1029,7 hPa 0,0 mm O 15,2 km/h (3 Bft)
16.11.2018 13:00 4,6 C 88 % 1029,4 hPa 0,0 mm O-SO 15,7 km/h (3 Bft)
16.11.2018 14:00 4,2 C 89 % 1029,0 hPa 0,0 mm O-SO 16,8 km/h (3 Bft)
16.11.2018 15:00 3,4 C 90 % 1028,9 hPa 0,0 mm SO 10,7 km/h (2 Bft)
16.11.2018 16:00 2,3 C 90 % 1028,9 hPa 0,0 mm SO 3,6 km/h (1 Bft)
16.11.2018 17:00 1,5 C 90 % 1028,9 hPa 0,0 mm SO 0,9 km/h (0 Bft)
16.11.2018 18:00 0,6 C 91 % 1028,9 hPa 0,0 mm SO 1,3 km/h (1 Bft)
16.11.2018 19:00 0,8 C 92 % 1028,9 hPa 0,0 mm SO 2,3 km/h (1 Bft)
16.11.2018 20:00 0,8 C 93 % 1029,0 hPa 0,0 mm O 7,4 km/h (2 Bft)
16.11.2018 21:00 1,4 C 93 % 1028,8 hPa 0,0 mm O 13,4 km/h (3 Bft)
16.11.2018 22:00 1,7 C 94 % 1028,7 hPa 0,2 mm O-SO 14,2 km/h (3 Bft)
16.11.2018 23:00 1,3 C 94 % 1028,5 hPa 0,0 mm O 16,8 km/h (3 Bft)
17.11.2018 00:00 0,7 C 94 % 1028,4 hPa 0,0 mm O 13,4 km/h (3 Bft)
17.11.2018 01:00 0,3 C 94 % 1028,6 hPa 0,0 mm O 12,8 km/h (3 Bft)
17.11.2018 02:00 0,2 C 94 % 1028,6 hPa 0,0 mm O 12,5 km/h (3 Bft)
17.11.2018 03:00 -0,1 C 94 % 1028,5 hPa 0,0 mm SO 8,4 km/h (2 Bft)
17.11.2018 04:00 -0,2 C 93 % 1028,4 hPa 0,0 mm O-SO 12,6 km/h (3 Bft)
17.11.2018 05:00 -0,3 C 93 % 1028,2 hPa 0,0 mm O-NO 12,1 km/h (2 Bft)
17.11.2018 06:00 -0,5 C 93 % 1028,7 hPa 0,0 mm O 12,0 km/h (2 Bft)
17.11.2018 07:00 -1,1 C 93 % 1029,3 hPa 0,0 mm O 6,4 km/h (2 Bft)
17.11.2018 08:00 -0,5 C 93 % 1029,7 hPa 0,0 mm O-NO 9,9 km/h (2 Bft)
17.11.2018 09:00 1,1 C 92 % 1029,8 hPa 0,0 mm O 17,6 km/h (3 Bft)
17.11.2018 10:00 2,5 C 91 % 1029,5 hPa 0,0 mm O 22,0 km/h (4 Bft)
17.11.2018 11:00 3,3 C 90 % 1029,1 hPa 0,2 mm O 23,9 km/h (4 Bft)
17.11.2018 12:00 3,3 C 89 % 1028,8 hPa 0,0 mm O-SO 25,9 km/h (4 Bft)
17.11.2018 13:00 3,8 C 86 % 1028,5 hPa 0,0 mm O 23,9 km/h (4 Bft)
17.11.2018 14:00 3,7 C 85 % 1028,3 hPa 0,0 mm O 21,6 km/h (4 Bft)
17.11.2018 15:00 3,3 C 84 % 1028,3 hPa 0,0 mm O 22,9 km/h (4 Bft)
17.11.2018 16:00 2,4 C 83 % 1028,7 hPa 0,0 mm O-NO 26,7 km/h (4 Bft)
17.11.2018 17:00 1,5 C 85 % 1028,9 hPa 0,0 mm O 17,8 km/h (3 Bft)
17.11.2018 18:00 0,8 C 87 % 1029,2 hPa 0,0 mm O-SO 17,3 km/h (3 Bft)
17.11.2018 19:00 0,4 C 88 % 1028,9 hPa 0,0 mm O 14,4 km/h (3 Bft)
17.11.2018 20:00 0,2 C 88 % 1028,6 hPa 0,0 mm O 18,5 km/h (3 Bft)
17.11.2018 21:00 -0,3 C 89 % 1028,5 hPa 0,0 mm O 17,0 km/h (3 Bft)
17.11.2018 22:00 -0,6 C 90 % 1028,6 hPa 0,0 mm O-SO 16,2 km/h (3 Bft)
17.11.2018 23:00 -0,9 C 92 % 1028,5 hPa 0,0 mm O 16,5 km/h (3 Bft)
18.11.2018 00:00 -0,7 C 91 % 1028,1 hPa 0,0 mm O 17,4 km/h (3 Bft)
18.11.2018 01:00 -1,1 C 91 % 1028,1 hPa 0,0 mm O-NO 18,5 km/h (3 Bft)
18.11.2018 02:00 -1,2 C 92 % 1027,9 hPa 0,0 mm O-SO 14,4 km/h (3 Bft)
18.11.2018 03:00 -1,0 C 92 % 1027,5 hPa 0,0 mm O-NO 14,8 km/h (3 Bft)
18.11.2018 04:00 -1,2 C 92 % 1027,0 hPa 0,0 mm O 16,9 km/h (3 Bft)
18.11.2018 05:00 -1,4 C 92 % 1026,6 hPa 0,0 mm O 18,6 km/h (3 Bft)
18.11.2018 06:00 -1,4 C 92 % 1026,2 hPa 0,0 mm O 18,1 km/h (3 Bft)
18.11.2018 07:00 -2,1 C 92 % 1026,1 hPa 0,0 mm O 17,7 km/h (3 Bft)
18.11.2018 08:00 -1,5 C 91 % 1026,2 hPa 0,0 mm O 18,5 km/h (3 Bft)
18.11.2018 09:00 -0,2 C 89 % 1025,8 hPa 0,0 mm O-NO 18,6 km/h (3 Bft)
18.11.2018 10:00 1,1 C 87 % 1024,9 hPa 0,0 mm O 17,3 km/h (3 Bft)
18.11.2018 11:00 2,1 C 85 % 1024,0 hPa 0,0 mm O-SO 20,9 km/h (4 Bft)
18.11.2018 12:00 3,0 C 81 % 1023,4 hPa 0,0 mm O-SO 19,0 km/h (3 Bft)
18.11.2018 13:00 3,5 C 79 % 1022,9 hPa 0,0 mm O 18,4 km/h (3 Bft)
18.11.2018 14:00 3,1 C 79 % 1022,3 hPa 0,0 mm O 16,5 km/h (3 Bft)
18.11.2018 15:00 2,2 C 80 % 1021,6 hPa 0,0 mm O-SO 12,1 km/h (2 Bft)
18.11.2018 16:00 0,8 C 84 % 1020,8 hPa 0,0 mm O-SO 4,1 km/h (1 Bft)
18.11.2018 17:00 -0,0 C 87 % 1020,4 hPa 0,0 mm O-SO 4,4 km/h (1 Bft)
18.11.2018 18:00 1,2 C 86 % 1020,2 hPa 0,0 mm O-SO 11,1 km/h (2 Bft)
18.11.2018 19:00 1,7 C 85 % 1019,6 hPa 0,0 mm O 13,2 km/h (3 Bft)
18.11.2018 20:00 2,1 C 81 % 1019,4 hPa 0,0 mm O-NO 20,4 km/h (4 Bft)
18.11.2018 21:00 1,5 C 82 % 1019,2 hPa 0,0 mm O-NO 16,5 km/h (3 Bft)
18.11.2018 22:00 0,9 C 86 % 1018,8 hPa 0,0 mm O-NO 13,4 km/h (3 Bft)
18.11.2018 23:00 0,8 C 88 % 1018,6 hPa 0,0 mm O 12,8 km/h (3 Bft)
Min-Datum _ 18.11.18 13.11.18 18.11.18 - - 12.11.18
_ Min-Zeit 07:25 13:35 23:50 - - 00:00
Minimum _ -2,3 C 78 % 1018,3 hPa - - 0,0 km/h (0 Bft)
Max-Datum _ 13.11.18 12.11.18 13.11.18 12.11.18 - 17.11.18
_ Max-Zeit 13:30 11:00 21:20 03:10 - 16:40
Maximum _ 14,0 C 95 % 1033,1 hPa 0,2 mm - 33,8 km/h
O (5 Bft)
Durchschnitt _ 4,0 C 91 % 1027,2 hPa #1,2 mm O 9,2 km/h (2 Bft)